Time;durP1;ratioP1;P1;durP2;ratioP2;P2;SDS_P1;SDS_P2;PMS_P1;PMS_P2;Temp;Humidity;BMP_temperature;BMP_pressure;BME280_temperature;BME280_humidity;BME280_pressure;Samples;Min_cycle;Max_cycle;Signal;HPM_P1;HPM_P2
2021/10/25 00:00:02;;;;;;;;;6.00;5.00;;;;;16.61;69.85;102174.22;146611;573;46018;-80
2021/10/25 00:02:36;;;;;;;;;7.00;4.33;;;;;16.60;69.68;102180.31;146603;586;46020;-79
2021/10/25 00:05:11;;;;;;;;;4.67;4.33;;;;;16.56;69.40;102186.19;146611;601;46017;-81
2021/10/25 00:07:45;;;;;;;;;3.67;3.67;;;;;16.51;69.61;102186.78;146616;578;46020;-83
2021/10/25 00:10:19;;;;;;;;;5.00;5.00;;;;;16.47;69.80;102188.34;146610;589;47010;-77
2021/10/25 00:12:53;;;;;;;;;3.33;3.33;;;;;16.43;70.35;102181.16;146615;623;46020;-76
2021/10/25 00:15:27;;;;;;;;;5.00;5.00;;;;;16.40;70.23;102160.06;146612;570;47010;-75
2021/10/25 00:18:01;;;;;;;;;5.00;4.33;;;;;16.38;70.24;102162.59;146616;581;46008;-75
2021/10/25 00:20:35;;;;;;;;;7.00;4.33;;;;;16.41;70.88;102172.31;146612;622;46016;-76
2021/10/25 00:23:09;;;;;;;;;3.00;3.00;;;;;16.42;69.09;102174.12;146617;625;46020;-76
2021/10/25 00:25:43;;;;;;;;;6.25;6.25;;;;;16.42;69.46;102174.12;146610;654;46910;-74
2021/10/25 00:28:17;;;;;;;;;13.75;13.00;;;;;16.45;69.87;102166.44;146600;580;46020;-74
2021/10/25 00:30:51;;;;;;;;;10.75;9.75;;;;;16.48;69.74;102156.13;146604;563;46016;-74
2021/10/25 00:33:25;;;;;;;;;15.00;12.25;;;;;16.35;69.87;102130.12;146612;592;47008;-74
2021/10/25 00:36:01;;;;;;;;;6.25;5.75;;;;;16.52;69.67;102158.06;146602;609;47010;-74
2021/10/25 00:38:35;;;;;;;;;5.00;5.00;;;;;16.50;69.65;102164.03;146614;655;47008;-74
2021/10/25 00:41:09;;;;;;;;;5.67;5.00;;;;;16.49;69.64;102146.53;146611;591;46017;-76
2021/10/25 00:43:43;;;;;;;;;4.33;4.33;;;;;16.47;69.17;102156.03;146614;592;46020;-75
2021/10/25 00:46:17;;;;;;;;;7.67;5.67;;;;;16.45;70.37;102163.81;146610;584;46010;-75
2021/10/25 00:48:51;;;;;;;;;5.50;3.50;;;;;16.39;70.32;102163.50;146616;675;46008;-75
2021/10/25 00:51:25;;;;;;;;;4.00;4.00;;;;;16.33;70.00;102158.87;146612;632;46016;-75
2021/10/25 00:53:59;;;;;;;;;4.33;3.67;;;;;16.14;70.30;102141.31;146604;569;46020;-80
2021/10/25 00:56:36;;;;;;;;;4.00;4.00;;;;;16.16;70.16;102149.25;146610;594;46016;-76
2021/10/25 00:59:10;;;;;;;;;5.00;5.00;;;;;16.28;70.06;102178.66;146619;579;46020;-85
2021/10/25 01:01:45;;;;;;;;;3.33;3.33;;;;;16.28;69.55;102175.16;146610;640;46017;-84
2021/10/25 01:04:20;;;;;;;;;5.33;3.33;;;;;16.09;69.52;102149.75;146615;591;46021;-75
2021/10/25 01:06:54;;;;;;;;;4.00;2.00;;;;;16.20;68.92;102181.69;146607;633;47020;-75
2021/10/25 01:09:29;;;;;;;;;4.00;4.00;;;;;16.17;69.04;102188.59;146616;586;46020;-81
2021/10/25 01:12:05;;;;;;;;;4.33;3.00;;;;;16.15;69.27;102177.12;146610;579;46016;-82
2021/10/25 01:14:39;;;;;;;;;4.00;3.00;;;;;16.14;70.02;102169.22;146616;632;46010;-78
2021/10/25 01:17:13;;;;;;;;;3.00;2.67;;;;;16.06;69.38;102155.72;146610;566;46018;-72
2021/10/25 01:19:47;;;;;;;;;2.33;2.33;;;;;16.01;69.95;102169.37;146603;581;46021;-74
2021/10/25 01:22:27;;;;;;;;;2.33;2.00;;;;;15.98;69.57;102169.22;146611;626;46016;-73
2021/10/25 01:25:01;;;;;;;;;2.00;2.00;;;;;16.00;69.83;102170.22;146612;579;46021;-79
2021/10/25 01:27:35;;;;;;;;;3.00;3.00;;;;;16.02;70.30;102182.56;146608;572;46016;-81
2021/10/25 01:30:09;;;;;;;;;5.33;2.67;;;;;16.04;70.04;102170.44;146615;645;46020;-81
2021/10/25 01:32:46;;;;;;;;;5.00;4.00;;;;;16.05;69.52;102172.25;146612;684;46017;-81
2021/10/25 01:35:20;;;;;;;;;5.50;5.00;;;;;16.08;69.27;102180.25;146613;639;46026;-71
2021/10/25 01:37:54;;;;;;;;;4.33;4.33;;;;;16.09;69.11;102178.53;146612;595;46016;-72
2021/10/25 01:40:28;;;;;;;;;5.00;3.67;;;;;16.10;68.86;102194.31;146615;614;46021;-73
2021/10/25 01:43:03;;;;;;;;;4.33;4.33;;;;;16.11;68.86;102201.34;146611;565;46018;-73
2021/10/25 01:45:37;;;;;;;;;3.67;3.67;;;;;16.08;68.34;102210.75;146601;685;47010;-72
2021/10/25 01:48:11;;;;;;;;;4.00;2.33;;;;;16.04;67.94;102193.97;146610;612;46011;-73
2021/10/25 01:50:45;;;;;;;;;3.50;3.50;;;;;16.03;68.21;102191.31;146614;580;46008;-72
2021/10/25 01:53:19;;;;;;;;;1.67;1.67;;;;;16.04;68.69;102188.75;146610;647;47010;-72
2021/10/25 01:55:59;;;;;;;;;3.67;1.67;;;;;16.06;68.89;102192.34;146616;570;46021;-71
2021/10/25 01:58:33;;;;;;;;;10.00;8.00;;;;;16.08;68.37;102189.84;146610;687;46016;-71
2021/10/25 02:01:08;;;;;;;;;8.67;6.33;;;;;16.10;68.08;102191.69;146615;644;46020;-71
2021/10/25 02:03:42;;;;;;;;;7.25;6.75;;;;;16.12;68.05;102194.41;146611;667;46016;-70
2021/10/25 02:06:17;;;;;;;;;6.75;6.25;;;;;16.12;67.82;102197.91;146613;692;47008;-69
2021/10/25 02:08:51;;;;;;;;;4.67;4.67;;;;;16.13;67.84;102196.19;146611;579;46016;-69
2021/10/25 02:11:25;;;;;;;;;5.00;3.00;;;;;16.12;67.70;102194.41;146603;650;46020;-71
2021/10/25 02:13:58;;;;;;;;;3.67;3.67;;;;;16.10;67.84;102185.56;146610;591;46016;-73
2021/10/25 02:16:33;;;;;;;;;4.00;3.00;;;;;16.07;66.24;102185.41;146617;625;45021;-74
2021/10/25 02:19:07;;;;;;;;;4.25;3.00;;;;;16.03;66.02;102178.22;146611;686;46016;-77
2021/10/25 02:21:42;;;;;;;;;2.33;2.00;;;;;16.02;66.47;102177.31;146615;579;47010;-74
2021/10/25 02:24:16;;;;;;;;;3.33;3.00;;;;;16.01;66.64;102186.00;146609;564;47018;-75
2021/10/25 02:26:50;;;;;;;;;2.67;2.67;;;;;16.01;66.59;102190.31;146618;582;46010;-74
2021/10/25 02:29:24;;;;;;;;;4.75;4.75;;;;;16.00;66.74;102189.41;146611;622;46016;-74
2021/10/25 02:31:58;;;;;;;;;5.00;4.00;;;;;15.98;67.04;102193.69;146614;613;46021;-75
2021/10/25 02:34:32;;;;;;;;;4.00;2.67;;;;;15.95;66.69;102193.53;146614;603;45910;-76
2021/10/25 02:37:07;;;;;;;;;3.67;3.67;;;;;15.96;66.98;102199.66;146606;604;46020;-79
2021/10/25 02:39:41;;;;;;;;;5.00;3.00;;;;;15.96;66.96;102199.66;146611;578;46017;-78
2021/10/25 02:42:16;;;;;;;;;5.00;5.00;;;;;15.94;67.38;102189.97;146615;585;47010;-77
2021/10/25 02:44:50;;;;;;;;;6.00;6.00;;;;;15.92;67.14;102193.38;146608;613;46018;-77
2021/10/25 02:47:27;;;;;;;;;4.00;3.00;;;;;15.87;66.22;102187.88;146617;635;46021;-79
2021/10/25 02:50:01;;;;;;;;;5.75;5.00;;;;;15.82;66.16;102188.44;146607;691;47909;-77
2021/10/25 02:52:35;;;;;;;;;6.75;6.25;;;;;15.77;66.58;102189.94;146616;563;46022;-76
2021/10/25 02:55:10;;;;;;;;;5.67;5.33;;;;;15.78;66.74;102186.50;146608;593;47910;-75
2021/10/25 02:57:44;;;;;;;;;5.00;4.00;;;;;15.79;67.74;102193.50;146614;569;46020;-75
2021/10/25 03:00:20;;;;;;;;;6.67;4.00;;;;;15.76;67.02;102193.34;146609;654;46016;-75
2021/10/25 03:02:54;;;;;;;;;5.00;4.00;;;;;15.72;67.10;102200.13;146603;569;46026;-74
2021/10/25 03:05:28;;;;;;;;;4.75;4.75;;;;;15.70;67.18;102197.44;146610;565;46016;-73
2021/10/25 03:08:02;;;;;;;;;2.00;2.00;;;;;15.70;67.21;102210.53;146615;593;46020;-74
2021/10/25 03:10:36;;;;;;;;;3.25;3.25;;;;;15.72;67.18;102202.75;146609;574;46017;-74
2021/10/25 03:13:10;;;;;;;;;17.25;16.00;;;;;15.74;66.98;102213.31;146615;671;46020;-74
2021/10/25 03:15:44;;;;;;;;;11.00;7.00;;;;;15.74;67.27;102205.47;146605;674;46016;-79
2021/10/25 03:18:18;;;;;;;;;6.50;5.75;;;;;15.69;67.18;102200.84;146616;569;46006;-77
2021/10/25 03:20:52;;;;;;;;;6.25;6.25;;;;;15.65;66.99;102191.03;146610;577;47010;-77
2021/10/25 03:23:36;;;;;;;;;5.67;5.00;;;;;15.65;66.40;102197.97;146615;580;46020;-77
2021/10/25 03:26:13;;;;;;;;;5.25;5.00;;;;;15.63;66.74;102179.56;146606;589;46910;-84
2021/10/25 03:28:48;;;;;;;;;4.67;4.67;;;;;15.69;66.33;102181.66;146604;624;46020;-79
2021/10/25 03:31:22;;;;;;;;;3.00;3.00;;;;;15.73;65.87;102188.84;146610;623;46017;-87
2021/10/25 03:33:56;;;;;;;;;1.33;1.33;;;;;15.75;66.29;102195.06;146613;567;46020;-86
2021/10/25 03:36:31;;;;;;;;;5.00;4.33;;;;;15.77;65.82;102205.63;146612;632;46016;-82
2021/10/25 03:39:07;;;;;;;;;6.00;5.25;;;;;15.75;65.75;102191.56;146615;570;46008;-80
2021/10/25 03:41:45;;;;;;;;;4.00;3.75;;;;;15.69;65.85;102192.13;146608;659;46016;-81
2021/10/25 03:44:27;;;;;;;;;6.25;5.25;;;;;15.61;65.71;102194.31;146616;580;46020;-80
2021/10/25 03:47:08;;;;;;;;;3.33;3.33;;;;;15.55;66.23;102199.19;146611;651;46017;-75
2021/10/25 03:49:48;;;;;;;;;4.25;3.00;;;;;15.56;65.65;102195.75;146618;596;46020;-75
2021/10/25 03:52:35;;;;;;;;;3.75;2.75;;;;;15.59;65.69;102200.25;146613;608;46016;-82
2021/10/25 04:04:19;;;;;;;;;4.00;4.00;;;;;15.63;67.30;102194.38;146614;666;46030;-77
2021/10/25 04:27:27;;;;;;;;;4.00;4.00;;;;;15.56;65.69;102211.44;146613;657;46016;-86
2021/10/25 04:30:04;;;;;;;;;2.67;1.00;;;;;15.53;64.40;102215.63;146607;588;47008;-82
2021/10/25 04:32:38;;;;;;;;;2.67;0.67;;;;;15.57;65.58;102223.69;146612;569;47010;-81
2021/10/25 04:35:13;;;;;;;;;3.00;3.00;;;;;15.59;65.62;102222.06;146617;578;45020;-83
2021/10/25 04:37:47;;;;;;;;;0.33;0.33;;;;;15.59;65.22;102222.06;146612;609;46017;-82
2021/10/25 04:40:21;;;;;;;;;2.33;1.67;;;;;15.60;65.52;102223.84;146612;594;46020;-79
2021/10/25 04:42:57;;;;;;;;;5.00;2.00;;;;;15.62;64.75;102210.88;146610;580;46016;-87
2021/10/25 04:45:31;;;;;;;;;1.33;1.33;;;;;15.65;64.01;102213.66;146614;577;47008;-84
2021/10/25 04:48:04;;;;;;;;;3.67;2.33;;;;;15.66;63.02;102224.19;146608;587;47010;-86
2021/10/25 04:50:39;;;;;;;;;2.00;1.33;;;;;15.67;62.69;102235.62;146604;610;46020;-79
2021/10/25 04:53:13;;;;;;;;;4.00;2.00;;;;;15.63;62.94;102225.75;146608;577;46010;-80
2021/10/25 04:55:47;;;;;;;;;1.00;1.00;;;;;15.54;63.30;102226.13;146615;574;46020;-83
2021/10/25 04:58:21;;;;;;;;;2.67;2.00;;;;;15.59;62.82;102239.47;146609;584;47011;-83
2021/10/25 05:00:55;;;;;;;;;4.00;3.33;;;;;15.58;62.16;102251.66;146612;628;46021;-84
2021/10/25 05:03:29;;;;;;;;;2.33;1.33;;;;;15.50;61.69;102255.53;146610;574;47010;-74
2021/10/25 05:06:03;;;;;;;;;1.00;1.00;;;;;15.37;53.56;102242.63;146613;622;46020;-79
2021/10/25 05:08:37;;;;;;;;;3.33;1.33;;;;;15.30;55.90;102243.09;146612;602;47910;-85
2021/10/25 05:11:11;;;;;;;;;0.00;0.00;;;;;15.18;52.93;102254.66;146617;628;46025;-80
2021/10/25 05:13:46;;;;;;;;;1.67;1.33;;;;;15.12;53.83;102233.41;146609;581;47017;-83
2021/10/25 05:16:20;;;;;;;;;1.67;0.67;;;;;15.02;55.24;102252.88;146601;591;47008;-81
2021/10/25 05:18:54;;;;;;;;;1.00;0.33;;;;;15.07;54.48;102241.78;146613;582;46016;-81
2021/10/25 05:21:28;;;;;;;;;2.67;1.00;;;;;15.06;53.80;102256.56;146616;720;46008;-79
2021/10/25 05:24:02;;;;;;;;;2.00;1.00;;;;;15.00;54.92;102243.16;146610;573;47010;-81
2021/10/25 05:26:36;;;;;;;;;1.00;1.00;;;;;15.01;55.57;102250.16;146613;569;47008;-87
2021/10/25 05:29:11;;;;;;;;;1.00;1.00;;;;;15.08;56.26;102256.63;146610;625;47910;-77
2021/10/25 05:31:45;;;;;;;;;1.67;1.67;;;;;15.15;56.85;102257.09;146615;595;46020;-78
2021/10/25 05:34:19;;;;;;;;;0.67;0.67;;;;;15.19;55.59;102234.63;146609;580;47018;-76
2021/10/25 05:36:53;;;;;;;;;3.00;0.67;;;;;15.11;54.64;102273.41;146616;566;46021;-79
2021/10/25 05:39:27;;;;;;;;;4.67;2.00;;;;;15.11;54.15;102264.66;146612;648;46016;-74
2021/10/25 05:42:04;;;;;;;;;2.33;0.67;;;;;15.13;54.06;102265.66;146603;640;47008;-73
2021/10/25 05:44:46;;;;;;;;;2.00;1.00;;;;;15.11;52.30;102273.41;146608;574;46016;-74
2021/10/25 05:47:20;;;;;;;;;1.00;1.00;;;;;15.17;53.95;102272.84;146614;583;46020;-73
2021/10/25 05:49:54;;;;;;;;;2.00;2.00;;;;;15.17;54.93;102283.28;146608;599;46016;-73
2021/10/25 05:52:28;;;;;;;;;2.67;1.67;;;;;15.17;53.87;102285.91;146615;607;47008;-73
2021/10/25 05:55:02;;;;;;;;;1.67;1.67;;;;;15.16;54.66;102271.94;146613;569;46016;-73
2021/10/25 05:57:36;;;;;;;;;2.67;2.67;;;;;15.13;54.20;102303.12;146601;583;46010;-74
2021/10/25 06:00:13;;;;;;;;;1.00;1.00;;;;;15.07;55.47;102304.47;146599;576;46016;-72
2021/10/25 06:02:53;;;;;;;;;1.00;1.00;;;;;15.01;55.00;102299.78;146602;652;46020;-72
2021/10/25 06:05:32;;;;;;;;;1.67;1.00;;;;;14.89;54.78;102309.50;146597;585;47011;-71
2021/10/25 06:08:05;;;;;;;;;2.00;1.67;;;;;14.74;53.09;102301.69;146601;582;46008;-72
2021/10/25 06:10:39;;;;;;;;;1.00;1.00;;;;;14.73;55.22;102303.38;146598;575;46029;-72
2021/10/25 06:13:23;;;;;;;;;2.33;1.33;;;;;14.53;53.33;102281.31;146604;645;46008;-72
2021/10/25 06:15:58;;;;;;;;;1.33;1.33;;;;;14.35;53.87;102280.19;146599;569;47010;-72
2021/10/25 06:18:32;;;;;;;;;2.25;1.00;;;;;14.42;54.07;102260.56;146602;571;46020;-72
2021/10/25 06:21:06;;;;;;;;;1.33;1.00;;;;;14.39;55.19;102279.56;146600;564;46016;-76
2021/10/25 06:23:40;;;;;;;;;2.00;1.00;;;;;14.47;54.92;102278.31;146604;630;46020;-74
2021/10/25 06:26:18;;;;;;;;;0.67;0.67;;;;;14.57;53.92;102279.78;146597;586;47018;-75
2021/10/25 06:28:52;;;;;;;;;1.00;0.67;;;;;14.72;54.46;102285.03;146603;569;46020;-74
2021/10/25 06:31:27;;;;;;;;;0.67;0.67;;;;;14.96;53.76;102290.81;146598;611;46026;-72
2021/10/25 06:34:08;;;;;;;;;3.00;1.75;;;;;15.33;52.55;102290.31;146598;570;46021;-74
2021/10/25 06:36:48;;;;;;;;;2.00;2.00;;;;;15.66;52.63;102310.47;146597;579;47909;-73
2021/10/25 06:42:17;;;;;;;;;4.00;2.00;;;;;16.06;51.59;102293.50;146600;587;46010;-72
2021/10/25 06:44:55;;;;;;;;;2.00;2.00;;;;;15.99;50.17;102288.78;146602;609;46020;-71
2021/10/25 06:47:29;;;;;;;;;1.00;0.67;;;;;15.84;49.82;102309.75;146599;563;46010;-77
2021/10/25 06:50:03;;;;;;;;;1.00;1.00;;;;;15.63;49.80;102307.69;146601;647;47008;-75
2021/10/25 06:52:37;;;;;;;;;1.33;1.00;;;;;15.51;50.91;102300.87;146600;611;46016;-79
2021/10/25 06:55:12;;;;;;;;;1.33;1.00;;;;;15.39;51.46;102311.53;146602;593;46020;-74
2021/10/25 06:57:46;;;;;;;;;1.00;1.00;;;;;15.27;51.24;102306.53;146598;583;46017;-76
2021/10/25 07:00:20;;;;;;;;;5.00;4.00;;;;;15.21;51.20;102299.25;146601;569;46020;-75
2021/10/25 07:02:54;;;;;;;;;1.00;1.00;;;;;15.06;51.48;102293.12;146598;673;47011;-74
2021/10/25 07:05:33;;;;;;;;;3.00;1.67;;;;;14.93;51.69;102327.19;146602;586;46020;-75
2021/10/25 07:08:09;;;;;;;;;0.67;0.33;;;;;14.86;51.74;102323.31;146599;565;47010;-74
2021/10/25 07:10:43;;;;;;;;;2.00;1.00;;;;;14.84;52.53;102310.97;146600;636;46021;-76
2021/10/25 07:13:17;;;;;;;;;4.25;2.50;;;;;14.84;53.52;102332.75;146596;563;46019;-75
2021/10/25 07:15:59;;;;;;;;;1.33;1.33;;;;;14.77;52.58;102346.28;146600;577;47008;-68
2021/10/25 07:18:59;;;;;;;;;1.67;1.67;;;;;14.80;53.12;102333.41;146600;569;46017;-75
2021/10/25 07:27:52;;;;;;;;;2.33;1.33;;;;;14.94;53.02;102305.47;146599;596;46017;-77
2021/10/25 08:02:06;;;;;;;;;2.00;2.00;;;;;15.00;51.71;102345.91;146602;581;46020;-74
2021/10/25 08:10:40;;;;;;;;;2.00;2.00;;;;;14.85;51.27;102337.16;146599;578;46017;-78
2021/10/25 08:13:16;;;;;;;;;2.00;2.00;;;;;14.96;51.20;102362.22;146602;576;47006;-78
2021/10/25 08:15:51;;;;;;;;;2.00;2.00;;;;;14.92;51.04;102343.66;146599;580;46016;-76
2021/10/25 08:21:23;;;;;;;;;3.00;3.00;;;;;15.05;51.68;102366.19;146604;605;45911;-79
2021/10/25 08:23:57;;;;;;;;;2.33;2.33;;;;;15.19;51.99;102371.41;146602;620;47008;-77
2021/10/25 08:26:31;;;;;;;;;2.33;2.00;;;;;15.41;50.76;102360.47;146602;576;47010;-79
2021/10/25 08:29:05;;;;;;;;;3.67;3.67;;;;;15.61;50.34;102360.75;146599;578;47008;-77
2021/10/25 08:31:40;;;;;;;;;2.33;2.33;;;;;15.68;49.52;102369.03;146600;700;46016;-79
2021/10/25 08:39:53;;;;;;;;;2.33;2.33;;;;;15.99;50.80;102360.31;146603;623;46020;-79
2021/10/25 08:42:30;;;;;;;;;3.00;2.00;;;;;16.00;48.05;102341.16;146600;633;46016;-76
2021/10/25 08:45:14;;;;;;;;;4.00;3.33;;;;;16.18;48.42;102351.75;146602;595;46020;-78
2021/10/25 08:47:50;;;;;;;;;1.00;1.00;;;;;16.31;48.06;102369.00;146599;615;46017;-79
2021/10/25 08:50:26;;;;;;;;;1.00;1.00;;;;;16.25;47.65;102369.56;146600;583;46020;-78
2021/10/25 08:53:01;;;;;;;;;2.67;1.00;;;;;16.22;49.20;102363.28;146600;577;46016;-78
2021/10/25 08:55:36;;;;;;;;;2.67;1.00;;;;;16.06;48.36;102380.75;146604;599;46021;-79
2021/10/25 08:58:10;;;;;;;;;2.67;2.67;;;;;16.03;48.86;102370.09;146598;616;47010;-78
2021/10/25 09:00:49;;;;;;;;;2.00;2.00;;;;;15.98;49.59;102365.44;146605;627;46006;-78
2021/10/25 09:03:26;;;;;;;;;1.67;1.67;;;;;15.86;48.63;102358.72;146597;639;46017;-80
2021/10/25 09:06:03;;;;;;;;;5.33;3.67;;;;;15.85;48.74;102369.09;146602;626;46020;-79
2021/10/25 09:08:37;;;;;;;;;3.33;2.33;;;;;15.83;49.21;102366.41;146597;655;47010;-79
2021/10/25 09:11:15;;;;;;;;;2.00;2.00;;;;;15.82;50.44;102363.69;146602;594;46021;-79
2021/10/25 09:13:49;;;;;;;;;2.00;1.33;;;;;15.76;48.64;102366.84;146599;626;46016;-79
2021/10/25 09:16:23;;;;;;;;;1.67;0.67;;;;;15.78;49.74;102373.06;146598;577;46020;-80
2021/10/25 09:18:58;;;;;;;;;2.00;1.00;;;;;15.81;48.94;102369.75;146600;595;46030;-79
2021/10/25 09:21:40;;;;;;;;;0.67;0.67;;;;;15.84;49.86;102357.72;146598;613;46020;-77
2021/10/25 09:24:25;;;;;;;;;0.67;0.67;;;;;15.86;50.72;102363.97;146599;584;46017;-79
2021/10/25 09:27:05;;;;;;;;;3.00;1.67;;;;;15.72;49.14;102353.53;146601;614;46020;-77
2021/10/25 09:29:45;;;;;;;;;1.33;0.00;;;;;15.64;48.47;102368.78;146598;655;46016;-77
2021/10/25 09:32:19;;;;;;;;;0.67;0.00;;;;;15.54;49.35;102363.81;146601;575;46021;-79
2021/10/25 09:35:04;;;;;;;;;1.33;1.33;;;;;15.50;48.90;102370.56;146600;589;46016;-79
2021/10/25 09:37:47;;;;;;;;;2.67;2.33;;;;;15.46;49.01;102366.88;146600;660;47006;-79
2021/10/25 09:40:50;;;;;;;;;2.00;2.00;;;;;15.47;49.32;102359.94;146599;570;46016;-78
2021/10/25 09:45:07;;;;;;;;;3.00;2.00;;;;;15.49;49.30;102371.41;146600;587;46021;-78
2021/10/25 09:49:41;;;;;;;;;5.67;2.00;;;;;15.65;50.56;102339.19;146600;686;47020;-80
2021/10/25 09:52:15;;;;;;;;;0.67;0.67;;;;;15.69;49.43;102328.09;146600;604;46016;-76
2021/10/25 09:55:00;;;;;;;;;3.00;2.33;;;;;15.64;48.11;102348.75;146600;598;47008;-78
2021/10/25 09:57:42;;;;;;;;;3.33;0.67;;;;;15.78;49.62;102346.03;146596;571;47010;-78
2021/10/25 10:00:18;;;;;;;;;3.00;3.00;;;;;15.88;47.85;102350.94;146598;570;46020;-79
2021/10/25 10:02:53;;;;;;;;;2.00;1.75;;;;;15.98;48.50;102348.06;146597;565;47010;-79
2021/10/25 10:05:35;;;;;;;;;1.67;1.00;;;;;16.03;48.15;102350.91;146604;615;46020;-80
2021/10/25 10:08:11;;;;;;;;;4.00;2.33;;;;;15.98;47.32;102340.19;146600;608;46016;-79
2021/10/25 10:10:45;;;;;;;;;1.33;0.67;;;;;15.98;48.17;102340.19;146601;639;45020;-79
2021/10/25 10:13:27;;;;;;;;;1.67;1.67;;;;;16.03;48.60;102343.06;146598;578;46016;-79
2021/10/25 10:16:05;;;;;;;;;1.00;1.00;;;;;16.07;48.45;102338.06;146603;618;46008;-79
2021/10/25 10:18:40;;;;;;;;;1.00;1.00;;;;;16.03;46.46;102338.72;146600;579;46016;-80
2021/10/25 10:21:17;;;;;;;;;1.33;1.00;;;;;15.88;45.83;102344.00;146601;570;47008;-80
2021/10/25 10:24:09;;;;;;;;;1.67;1.00;;;;;15.86;46.36;102332.56;146598;569;46016;-79
2021/10/25 10:26:43;;;;;;;;;1.67;1.67;;;;;15.91;47.87;102332.81;146605;606;46020;-79
2021/10/25 10:29:20;;;;;;;;;4.00;2.00;;;;;15.83;46.51;102324.56;146598;658;46016;-80
2021/10/25 10:32:09;;;;;;;;;3.00;2.00;;;;;15.81;47.98;102339.25;146602;581;46020;-78
2021/10/25 10:34:47;;;;;;;;;0.67;0.67;;;;;15.91;49.17;102330.19;146597;680;47910;-79
2021/10/25 10:37:26;;;;;;;;;1.33;1.33;;;;;16.08;47.98;102316.31;146599;674;46021;-79
2021/10/25 10:40:39;;;;;;;;;2.00;1.33;;;;;15.07;48.46;102108.53;146599;579;46016;-78
2021/10/25 10:43:27;;;;;;;;;2.67;2.00;;;;;16.31;49.94;102299.22;146600;569;47020;-79
2021/10/25 10:46:15;;;;;;;;;2.67;2.00;;;;;16.48;50.04;102300.13;146598;583;46017;-79
2021/10/25 10:48:59;;;;;;;;;1.67;1.67;;;;;16.74;48.69;102292.72;146602;575;46020;-79
2021/10/25 10:51:36;;;;;;;;;3.00;2.00;;;;;16.93;46.37;102287.59;146598;624;47010;-79
2021/10/25 10:54:21;;;;;;;;;0.33;0.33;;;;;17.15;48.07;102280.81;146602;597;46021;-79
2021/10/25 10:57:08;;;;;;;;;3.00;3.00;;;;;17.44;47.78;102280.50;146598;595;46016;-79
2021/10/25 10:59:50;;;;;;;;;2.33;1.00;;;;;17.58;44.66;102275.03;146600;593;47021;-79
2021/10/25 11:02:24;;;;;;;;;1.33;1.33;;;;;17.71;43.90;102274.78;146598;667;46016;-79
2021/10/25 11:05:11;;;;;;;;;2.00;1.00;;;;;17.96;43.87;102272.47;146596;618;47008;-80
2021/10/25 11:07:45;;;;;;;;;1.67;1.33;;;;;18.13;41.41;102262.75;146599;597;46017;-77
2021/10/25 11:10:19;;;;;;;;;1.33;1.33;;;;;18.23;42.42;102266.69;146600;594;47008;-79
2021/10/25 11:13:00;;;;;;;;;2.00;1.33;;;;;18.40;41.91;102267.41;146597;704;47010;-78
2021/10/25 11:15:41;;;;;;;;;3.00;0.67;;;;;18.60;39.25;102263.94;146600;588;46021;-77
2021/10/25 11:18:16;;;;;;;;;1.33;1.33;;;;;18.75;40.09;102266.34;146599;576;46016;-80
2021/10/25 11:20:53;;;;;;;;;1.67;1.67;;;;;18.62;40.60;102266.63;146599;592;46022;-78
2021/10/25 11:23:28;;;;;;;;;1.67;1.67;;;;;18.35;41.89;102261.06;146598;570;47010;-79
2021/10/25 11:26:18;;;;;;;;;0.00;0.00;;;;;17.99;43.02;102255.97;146601;573;47006;-79
2021/10/25 11:29:10;;;;;;;;;3.00;1.33;;;;;17.63;42.17;102234.16;146598;692;46016;-79
2021/10/25 11:31:58;;;;;;;;;2.00;2.00;;;;;17.54;44.10;102240.78;146600;598;46020;-79
2021/10/25 11:34:37;;;;;;;;;2.33;1.67;;;;;17.56;43.79;102243.47;146600;650;46016;-78
2021/10/25 11:37:24;;;;;;;;;1.00;1.00;;;;;17.60;44.79;102236.63;146601;605;46021;-79
2021/10/25 11:40:04;;;;;;;;;2.33;2.00;;;;;17.53;43.01;102228.47;146598;576;47010;-79
2021/10/25 11:42:48;;;;;;;;;3.00;2.00;;;;;17.47;44.43;102233.44;146601;650;47020;-79
2021/10/25 11:45:26;;;;;;;;;3.00;2.00;;;;;17.35;44.89;102235.47;146599;574;46010;-79
2021/10/25 11:48:00;;;;;;;;;0.67;0.67;;;;;17.17;44.98;102227.66;146601;601;46907;-79
2021/10/25 11:50:37;;;;;;;;;1.00;1.00;;;;;17.00;43.75;102233.78;146599;603;47010;-79
2021/10/25 11:53:13;;;;;;;;;2.33;2.33;;;;;16.97;44.86;102231.91;146603;564;47006;-78
2021/10/25 11:55:47;;;;;;;;;3.00;2.00;;;;;16.93;44.87;102232.59;146597;570;47010;-78
2021/10/25 11:58:23;;;;;;;;;2.33;2.33;;;;;16.87;44.55;102228.75;146600;630;47011;-78
2021/10/25 12:00:56;;;;;;;;;2.00;2.00;;;;;16.85;43.88;102236.53;146595;581;47910;-78
2021/10/25 12:03:30;;;;;;;;;1.67;1.00;;;;;16.85;45.65;102223.44;146602;624;46020;-79
2021/10/25 12:06:04;;;;;;;;;1.33;0.67;;;;;16.85;44.76;102244.41;146599;564;46031;-78
2021/10/25 12:08:38;;;;;;;;;4.00;2.67;;;;;16.98;43.62;102232.84;146601;575;46027;-80
2021/10/25 12:11:12;;;;;;;;;2.00;2.00;;;;;17.26;44.96;102221.97;146597;660;46016;-80
2021/10/25 12:13:46;;;;;;;;;2.67;1.33;;;;;17.52;41.11;102229.31;146599;569;47006;-80
2021/10/25 12:16:20;;;;;;;;;1.67;1.67;;;;;17.82;43.38;102230.69;146598;638;46918;-78
2021/10/25 12:18:57;;;;;;;;;1.67;1.67;;;;;17.94;42.80;102228.62;146603;573;46008;-78
2021/10/25 12:21:38;;;;;;;;;2.00;1.00;;;;;17.90;41.99;102224.06;146600;632;46017;-79
2021/10/25 12:24:14;;;;;;;;;1.00;1.00;;;;;18.00;43.46;102235.03;146599;589;46020;-79
2021/10/25 12:26:48;;;;;;;;;10.50;10.00;;;;;18.24;42.35;102236.97;146597;577;46016;-79
2021/10/25 12:29:23;;;;;;;;;2.67;2.00;;;;;18.33;39.80;102234.75;146601;569;47008;-79
2021/10/25 12:32:11;;;;;;;;;1.67;1.67;;;;;18.36;40.70;102232.25;146597;588;47010;-78
2021/10/25 12:35:14;;;;;;;;;1.00;0.00;;;;;17.43;44.51;102054.94;146603;609;46021;-78
2021/10/25 12:37:48;;;;;;;;;1.00;0.67;;;;;18.44;43.15;102224.69;146598;566;46017;-79
2021/10/25 12:40:23;;;;;;;;;4.67;3.33;;;;;18.46;41.93;102218.69;146600;569;47008;-79
2021/10/25 12:43:04;;;;;;;;;3.00;1.67;;;;;18.39;42.82;102215.75;146597;624;47011;-79
2021/10/25 12:45:44;;;;;;;;;2.67;1.00;;;;;18.35;41.74;102221.66;146601;591;46020;-78
2021/10/25 12:48:20;;;;;;;;;0.33;0.33;;;;;18.44;40.47;102220.37;146597;599;47010;-80
2021/10/25 12:50:54;;;;;;;;;1.67;1.00;;;;;18.60;40.08;102228.91;146599;617;46020;-78
2021/10/25 12:53:32;;;;;;;;;1.00;1.00;;;;;18.72;40.45;102217.97;146597;565;47010;-79
2021/10/25 12:56:06;;;;;;;;;2.00;1.33;;;;;18.90;40.49;102226.66;146602;694;46020;-78
2021/10/25 12:58:40;;;;;;;;;1.00;1.00;;;;;19.01;38.94;102208.72;146598;580;46017;-79
2021/10/25 13:01:17;;;;;;;;;1.67;1.00;;;;;19.09;39.69;102217.78;146602;590;46020;-78
2021/10/25 13:03:52;;;;;;;;;0.67;0.67;;;;;19.27;39.97;102223.78;146597;670;47010;-77
2021/10/25 13:06:29;;;;;;;;;2.00;1.00;;;;;19.41;36.79;102219.09;146601;567;46011;-78
2021/10/25 13:09:11;;;;;;;;;2.00;2.00;;;;;19.50;38.15;102211.56;146595;576;47010;-78
2021/10/25 13:11:55;;;;;;;;;2.00;2.00;;;;;19.56;39.76;102217.06;146602;590;46020;-78
2021/10/25 13:14:28;;;;;;;;;1.67;0.67;;;;;19.74;38.19;102205.44;146597;573;46017;-79
2021/10/25 13:17:02;;;;;;;;;0.00;0.00;;;;;19.95;37.59;102210.59;146599;633;46020;-78
2021/10/25 13:19:36;;;;;;;;;1.00;1.00;;;;;20.12;36.94;102201.56;146600;617;46016;-79
2021/10/25 13:22:10;;;;;;;;;1.00;1.00;;;;;20.20;38.23;102176.41;146599;626;47008;-78
2021/10/25 13:24:44;;;;;;;;;0.33;0.00;;;;;20.52;37.43;102195.09;146601;617;45910;-80
2021/10/25 13:27:18;;;;;;;;;1.67;1.00;;;;;20.49;38.57;102198.47;146600;649;47009;-78
2021/10/25 13:29:52;;;;;;;;;1.00;1.00;;;;;20.33;37.22;102195.28;146599;579;47010;-80
2021/10/25 13:32:26;;;;;;;;;1.00;1.00;;;;;20.09;36.51;102193.56;146600;582;46028;-78
2021/10/25 13:35:00;;;;;;;;;2.33;1.00;;;;;19.91;37.58;102193.81;146599;602;46011;-79